Time;durP1;ratioP1;P1;durP2;ratioP2;P2;SDS_P1;SDS_P2;PMS_P1;PMS_P2;Temp;Humidity;BMP_temperature;BMP_pressure;BME280_temperature;BME280_humidity;BME280_pressure;Samples;Min_cycle;Max_cycle;Signal;HPM_P1;HPM_P2
2023/04/07 00:01:23;;;;;;;4.7;3.9;;;;;;;4.41;65.58789;937.6719;;;;
2023/04/07 00:03:48;;;;;;;5.4;4.3;;;;;;;4.23;66.03125;937.7076;;;;
2023/04/07 00:06:16;;;;;;;6.1;4.5;;;;;;;4.01;67.01172;937.6682;;;;
2023/04/07 00:08:41;;;;;;;6.4;4.8;;;;;;;4.11;66.7793;937.6602;;;;
2023/04/07 00:11:07;;;;;;;5.8;4.6;;;;;;;4.24;66.75391;937.6886;;;;
2023/04/07 00:13:32;;;;;;;5.3;4.2;;;;;;;4.27;66.58984;937.6484;;;;
2023/04/07 00:15:59;;;;;;;7.8;4.7;;;;;;;4.32;66.67676;937.5846;;;;
2023/04/07 00:18:24;;;;;;;5.9;4.5;;;;;;;4.34;66.5332;937.5873;;;;
2023/04/07 00:20:50;;;;;;;5.6;4.2;;;;;;;4.34;66.51074;937.6136;;;;
2023/04/07 00:23:15;;;;;;;4.5;3.8;;;;;;;4.28;66.45801;937.5747;;;;
2023/04/07 00:25:42;;;;;;;5.9;3.8;;;;;;;4.28;66.55762;937.5478;;;;
2023/04/07 00:28:07;;;;;;;5.6;3.9;;;;;;;4.31;66.38281;937.5132;;;;
2023/04/07 00:30:33;;;;;;;5.3;4.1;;;;;;;4.31;66.16895;937.5006;;;;
2023/04/07 00:32:58;;;;;;;4.3;3.6;;;;;;;4.37;65.97461;937.4409;;;;
2023/04/07 00:35:25;;;;;;;6;4.3;;;;;;;4.48;66.375;937.4659;;;;
2023/04/07 00:37:50;;;;;;;4.6;4.1;;;;;;;4.57;66.06348;937.4205;;;;
2023/04/07 00:40:16;;;;;;;13.3;8.2;;;;;;;4.49;65.73535;937.356;;;;
2023/04/07 00:42:41;;;;;;;5.8;4.4;;;;;;;4.46;65.75391;937.3898;;;;
2023/04/07 00:45:12;;;;;;;5;3.9;;;;;;;4.47;66.12695;937.3711;;;;
2023/04/07 00:47:38;;;;;;;5.5;4;;;;;;;4.48;66.2959;937.3106;;;;
2023/04/07 00:50:03;;;;;;;5.3;4.3;;;;;;;4.49;65.74707;937.27;;;;
2023/04/07 00:52:29;;;;;;;6.4;4.3;;;;;;;4.47;65.19141;937.1936;;;;
2023/04/07 00:54:55;;;;;;;5.8;4;;;;;;;4.44;65.13086;937.192;;;;
2023/04/07 00:57:21;;;;;;;5.7;4.4;;;;;;;4.47;65.78906;937.2079;;;;
2023/04/07 00:59:45;;;;;;;5.4;3.8;;;;;;;4.5;65.3877;937.183;;;;
2023/04/07 01:02:10;;;;;;;4.8;4.1;;;;;;;4.54;65.11328;937.1375;;;;
2023/04/07 01:04:36;;;;;;;5;4.2;;;;;;;4.51;65.08691;937.1122;;;;
2023/04/07 01:07:01;;;;;;;6.8;4.2;;;;;;;4.51;65.32227;937.142;;;;
2023/04/07 01:09:27;;;;;;;7.5;4.4;;;;;;;4.52;65.41309;937.1652;;;;
2023/04/07 01:11:59;;;;;;;6.6;4.3;;;;;;;4.54;65.16992;937.1406;;;;
2023/04/07 01:14:25;;;;;;;4.4;4;;;;;;;4.52;65.14355;937.111;;;;
2023/04/07 01:16:50;;;;;;;5.3;4.3;;;;;;;4.63;65.0459;937.0733;;;;
2023/04/07 01:19:18;;;;;;;6.5;4.1;;;;;;;4.51;65.53711;937.0602;;;;
2023/04/07 01:21:43;;;;;;;4.2;3.7;;;;;;;4.54;65.38281;937.0097;;;;
2023/04/07 01:24:09;;;;;;;4.8;3.8;;;;;;;4.54;65.35938;937.0705;;;;
2023/04/07 01:26:34;;;;;;;5.4;3.4;;;;;;;4.49;65.24023;937.0833;;;;
2023/04/07 01:28:59;;;;;;;4.5;3.6;;;;;;;4.51;64.54688;937.0477;;;;
2023/04/07 01:31:24;;;;;;;5;3.9;;;;;;;4.54;64.88672;937.02;;;;
2023/04/07 01:33:52;;;;;;;4.9;4;;;;;;;4.56;64.73242;937.045;;;;
2023/04/07 01:36:17;;;;;;;4.4;3.5;;;;;;;4.6;64.38965;937.0589;;;;
2023/04/07 01:38:42;;;;;;;4.5;3.7;;;;;;;4.76;64.59473;937.0323;;;;
2023/04/07 01:41:09;;;;;;;4.5;4;;;;;;;4.86;64.47266;937.0684;;;;
2023/04/07 01:44:07;;;;;;;5.3;4.1;;;;;;;4.85;64.75488;937.0873;;;;
2023/04/07 01:46:32;;;;;;;5.3;4;;;;;;;4.99;63.90723;937.1362;;;;
2023/04/07 01:48:57;;;;;;;5;3.8;;;;;;;5.01;63.50391;937.1308;;;;
2023/04/07 01:51:25;;;;;;;4.6;3.6;;;;;;;5;64.82324;937.0837;;;;
2023/04/07 01:53:49;;;;;;;4.9;3.6;;;;;;;4.96;65.62598;936.9822;;;;
2023/04/07 01:56:15;;;;;;;5.1;3.9;;;;;;;4.9;65.3584;937.038;;;;
2023/04/07 01:58:40;;;;;;;5.2;3.9;;;;;;;4.91;65.15723;937.0258;;;;
2023/04/07 02:01:07;;;;;;;5;4.1;;;;;;;4.86;64.42773;936.9675;;;;
2023/04/07 02:03:32;;;;;;;5.6;4.4;;;;;;;4.79;64.26074;936.9313;;;;
2023/04/07 02:05:57;;;;;;;4.8;4;;;;;;;4.67;65.42578;936.9579;;;;
2023/04/07 02:08:22;;;;;;;7.3;3.9;;;;;;;4.76;63.29883;936.9432;;;;
2023/04/07 02:10:47;;;;;;;4.9;3.7;;;;;;;4.89;62.14551;936.8786;;;;
2023/04/07 02:13:12;;;;;;;4.6;3.6;;;;;;;4.98;62.92578;936.9684;;;;
2023/04/07 02:15:44;;;;;;;6;4.4;;;;;;;4.92;63.86328;936.9565;;;;
2023/04/07 02:18:11;;;;;;;6.4;4.5;;;;;;;4.94;64.31641;936.9958;;;;
2023/04/07 02:20:35;;;;;;;5.9;4.1;;;;;;;5.04;63.99414;936.9667;;;;
2023/04/07 02:23:01;;;;;;;7.7;4.8;;;;;;;5.01;65.43164;936.9728;;;;
2023/04/07 02:25:26;;;;;;;5.2;4.4;;;;;;;5.08;65.93848;936.9597;;;;
2023/04/07 02:27:53;;;;;;;7.8;5.5;;;;;;;5.16;66.62793;936.9872;;;;
2023/04/07 02:30:18;;;;;;;7;5.1;;;;;;;5.24;66.4248;936.9913;;;;
2023/04/07 02:32:45;;;;;;;7.2;5.6;;;;;;;5.38;65.35352;937.0148;;;;
2023/04/07 02:35:10;;;;;;;5.3;4.4;;;;;;;5.46;64.40625;936.9825;;;;
2023/04/07 02:37:38;;;;;;;5.6;4.6;;;;;;;5.42;64.20801;936.9246;;;;
2023/04/07 02:40:03;;;;;;;6.3;5.2;;;;;;;5.44;65.27246;936.8936;;;;
2023/04/07 03:51:53;;;;;;;7.1;5.1;;;;;;;4.91;80.76465;936.6708;;;;
2023/04/07 03:54:18;;;;;;;9.8;7.3;;;;;;;4.7;81.19922;936.6749;;;;
2023/04/07 03:56:45;;;;;;;9.5;6.5;;;;;;;4.59;81.30176;936.613;;;;
2023/04/07 03:59:10;;;;;;;9.5;6.8;;;;;;;4.49;81.29297;936.6281;;;;
2023/04/07 04:02:43;;;;;;;7.8;5.8;;;;;;;4.52;80.26367;936.5889;;;;
2023/04/07 04:05:12;;;;;;;6.9;5.6;;;;;;;4.45;79.7666;936.5419;;;;
2023/04/07 04:07:37;;;;;;;7.4;6.1;;;;;;;4.51;80.02539;936.4814;;;;
2023/04/07 04:10:06;;;;;;;8.9;6;;;;;;;4.65;79.72461;936.4739;;;;
2023/04/07 04:12:31;;;;;;;7;5.4;;;;;;;4.54;79.88574;936.4067;;;;
2023/04/07 04:14:59;;;;;;;12.1;8;;;;;;;4.46;80.87109;936.3869;;;;
2023/04/07 04:17:24;;;;;;;256.6;120.1;;;;;;;4.52;81.25488;936.3083;;;;
2023/04/07 04:19:50;;;;;;;21.9;12.6;;;;;;;4.43;81.75488;936.2457;;;;
2023/04/07 04:22:14;;;;;;;8.9;6.6;;;;;;;4.29;82.15723;936.3077;;;;
2023/04/07 04:24:40;;;;;;;9.2;6.6;;;;;;;4.32;82.48828;936.2297;;;;
2023/04/07 04:27:53;;;;;;;8.4;6.5;;;;;;;4.39;82.16504;936.2831;;;;
2023/04/07 04:30:21;;;;;;;8.3;6.5;;;;;;;4.36;82.40527;936.301;;;;
2023/04/07 04:32:46;;;;;;;7.5;6;;;;;;;4.46;82.47168;936.2908;;;;
2023/04/07 04:35:16;;;;;;;9.8;6.6;;;;;;;4.53;81.80664;936.2651;;;;
2023/04/07 04:37:41;;;;;;;8.8;6.6;;;;;;;4.34;82.27832;936.2137;;;;
2023/04/07 04:40:08;;;;;;;8.8;6.7;;;;;;;4.36;82.50684;936.2379;;;;
2023/04/07 04:42:33;;;;;;;8;6.7;;;;;;;4.36;83.61133;936.2514;;;;
2023/04/07 04:45:01;;;;;;;7.9;6.3;;;;;;;4.39;84.23535;936.2153;;;;
2023/04/07 04:47:26;;;;;;;9;6.3;;;;;;;4.37;84.52441;936.243;;;;
2023/04/07 04:50:29;;;;;;;8.7;6.7;;;;;;;4.28;84.65137;936.2143;;;;
2023/04/07 04:52:59;;;;;;;8.1;6.3;;;;;;;4.08;84.42285;936.2601;;;;
2023/04/07 04:55:24;;;;;;;8.4;6.4;;;;;;;3.92;85.28809;936.2541;;;;
2023/04/07 04:57:52;;;;;;;9.6;6.8;;;;;;;3.95;85.46582;936.3017;;;;
2023/04/07 05:00:17;;;;;;;7.7;6.5;;;;;;;4.02;85.27441;936.2251;;;;
2023/04/07 05:02:42;;;;;;;9.4;7;;;;;;;3.94;85.48438;936.3005;;;;
2023/04/07 05:05:10;;;;;;;10.6;7.1;;;;;;;3.87;86.04297;936.166;;;;
2023/04/07 05:07:36;;;;;;;8.5;6.5;;;;;;;3.93;86.31445;936.2238;;;;
2023/04/07 05:10:00;;;;;;;10.5;7.3;;;;;;;3.97;86.01855;936.2132;;;;
2023/04/07 05:12:26;;;;;;;9.3;7;;;;;;;4;85.97852;936.2061;;;;
2023/04/07 05:14:51;;;;;;;9.9;7.7;;;;;;;4.03;86.22266;936.1688;;;;
2023/04/07 05:17:19;;;;;;;11;7.3;;;;;;;4.05;86.02344;936.1947;;;;
2023/04/07 05:19:44;;;;;;;9.8;7.3;;;;;;;3.98;85.77441;936.1703;;;;
2023/04/07 05:22:10;;;;;;;8.3;7;;;;;;;3.91;85.57813;936.1119;;;;
2023/04/07 05:24:35;;;;;;;11.4;8;;;;;;;3.87;85.58203;936.2139;;;;
2023/04/07 05:27:00;;;;;;;11.6;7.9;;;;;;;3.84;85.75488;936.1902;;;;
2023/04/07 05:29:27;;;;;;;12.8;8.9;;;;;;;3.92;86.22266;936.2747;;;;
2023/04/07 05:31:54;;;;;;;15.1;9.8;;;;;;;4.07;85.54395;936.2456;;;;
2023/04/07 05:34:19;;;;;;;10.5;8.1;;;;;;;4.21;85.26855;936.2469;;;;
2023/04/07 05:36:45;;;;;;;9.5;7.4;;;;;;;4.42;85.0293;936.1738;;;;
2023/04/07 05:39:14;;;;;;;10;7.1;;;;;;;4.53;83.95996;936.1667;;;;
2023/04/07 05:41:42;;;;;;;9.9;7;;;;;;;4.5;82.86133;936.2022;;;;
2023/04/07 05:44:07;;;;;;;9;6.3;;;;;;;4.55;83.19824;936.1437;;;;
2023/04/07 05:46:36;;;;;;;8.4;6.6;;;;;;;4.57;83.23535;936.1465;;;;
2023/04/07 05:49:01;;;;;;;10.8;7.8;;;;;;;4.59;83.07031;936.1234;;;;
2023/04/07 05:51:30;;;;;;;8.6;7.2;;;;;;;4.66;82.54395;936.1825;;;;
2023/04/07 05:54:30;;;;;;;12.7;9;;;;;;;4.67;82.21875;936.1662;;;;
2023/04/07 05:56:57;;;;;;;15.7;10;;;;;;;4.64;82.78613;936.0525;;;;
2023/04/07 05:59:23;;;;;;;19.5;12.5;;;;;;;4.78;82.47656;936.1599;;;;
2023/04/07 06:01:48;;;;;;;18.5;11.9;;;;;;;4.81;82.46094;936.1058;;;;
2023/04/07 06:04:16;;;;;;;16.1;10.4;;;;;;;4.84;82.31934;936.0963;;;;
2023/04/07 06:06:59;;;;;;;15.3;9.7;;;;;;;4.83;82.31543;936.1386;;;;
2023/04/07 06:09:28;;;;;;;10.8;8;;;;;;;4.97;82.80762;936.0508;;;;
2023/04/07 06:12:06;;;;;;;9.4;6.7;;;;;;;5.02;82.58887;936.0389;;;;
2023/04/07 06:14:33;;;;;;;9;7;;;;;;;5.24;81.83203;936.019;;;;
2023/04/07 06:16:58;;;;;;;10.7;6.8;;;;;;;5.39;81.34082;935.9303;;;;
2023/04/07 06:19:27;;;;;;;8;6.3;;;;;;;5.43;80.2998;935.9742;;;;
2023/04/07 06:21:52;;;;;;;8.8;6.9;;;;;;;5.52;80.05762;935.9678;;;;
2023/04/07 06:24:17;;;;;;;8.7;6.9;;;;;;;5.44;79.83887;935.9657;;;;
2023/04/07 06:26:42;;;;;;;8.9;6.7;;;;;;;5.38;79.83984;935.9576;;;;
2023/04/07 06:29:08;;;;;;;8.6;7;;;;;;;5.37;80.19629;936.0284;;;;
2023/04/07 06:31:33;;;;;;;8.3;6.1;;;;;;;5.43;79.44043;935.9512;;;;
2023/04/07 06:34:01;;;;;;;7.3;6.3;;;;;;;5.44;79.30859;935.9436;;;;
2023/04/07 06:36:26;;;;;;;8.9;7.2;;;;;;;5.5;79.05957;935.9656;;;;
2023/04/07 06:38:51;;;;;;;11.6;7.4;;;;;;;5.54;79.25977;935.9288;;;;
2023/04/07 06:41:17;;;;;;;8.7;6.7;;;;;;;5.64;78.54395;935.9395;;;;
2023/04/07 06:43:42;;;;;;;8.8;6.8;;;;;;;5.59;79.41602;935.9032;;;;
2023/04/07 06:46:07;;;;;;;17.8;16.3;;;;;;;5.75;78.22559;935.7879;;;;
2023/04/07 06:48:34;;;;;;;8.4;6.9;;;;;;;5.9;78.12891;935.7856;;;;
2023/04/07 06:50:59;;;;;;;7.8;7;;;;;;;6.38;78.22754;935.8093;;;;
2023/04/07 06:53:26;;;;;;;9.3;6.9;;;;;;;6.42;75.2959;935.8073;;;;
2023/04/07 06:55:51;;;;;;;7.7;6.2;;;;;;;6.28;74.5127;935.7787;;;;
2023/04/07 06:58:18;;;;;;;8.5;6.5;;;;;;;6.42;74.99023;935.7804;;;;
2023/04/07 07:00:43;;;;;;;10.6;7.6;;;;;;;7.25;73.72949;935.7119;;;;
2023/04/07 07:03:09;;;;;;;7.5;5.9;;;;;;;7.84;70.47168;935.7367;;;;
2023/04/07 07:05:36;;;;;;;6.3;5.3;;;;;;;7.76;68.90527;935.6458;;;;
2023/04/07 07:08:01;;;;;;;8.1;6.1;;;;;;;7.64;67.09473;935.6058;;;;
2023/04/07 07:10:28;;;;;;;7.7;5.7;;;;;;;7.59;67.55176;935.6919;;;;
2023/04/07 07:12:54;;;;;;;7.5;5.4;;;;;;;7.35;67.24121;935.6939;;;;
2023/04/07 07:15:21;;;;;;;6.3;5.4;;;;;;;7.8;66.63281;935.7065;;;;
2023/04/07 07:17:47;;;;;;;7.5;5.5;;;;;;;8.06;65.18457;935.6738;;;;
2023/04/07 07:20:15;;;;;;;8.6;5.7;;;;;;;8.44;63.83398;935.6806;;;;
2023/04/07 07:22:40;;;;;;;6.8;5.4;;;;;;;8.22;64.10645;935.658;;;;
2023/04/07 07:25:06;;;;;;;9;5.8;;;;;;;7.87;65.05371;935.6944;;;;
2023/04/07 07:27:31;;;;;;;8.4;6.5;;;;;;;7.44;64.60254;935.7186;;;;
2023/04/07 07:29:58;;;;;;;11.3;7.4;;;;;;;7.45;65.9541;935.6199;;;;
2023/04/07 07:32:23;;;;;;;10.1;7.2;;;;;;;7.41;65.29102;935.5527;;;;
2023/04/07 07:34:48;;;;;;;8.4;6;;;;;;;7.48;64.54102;935.599;;;;
2023/04/07 07:37:14;;;;;;;7.5;5.2;;;;;;;7.51;63.86523;935.5059;;;;
2023/04/07 07:39:39;;;;;;;7.5;5.3;;;;;;;8.02;62.97559;935.5637;;;;
2023/04/07 07:42:06;;;;;;;5.9;4.7;;;;;;;8.58;60.47754;935.4562;;;;
2023/04/07 07:44:31;;;;;;;6.5;4.8;;;;;;;9.21;60.39551;935.4553;;;;
2023/04/07 07:46:58;;;;;;;5.2;4.5;;;;;;;9.31;57.2002;935.4335;;;;
2023/04/07 07:49:23;;;;;;;5.2;4.5;;;;;;;9.6;56.71289;935.4125;;;;
2023/04/07 07:51:49;;;;;;;5.7;4;;;;;;;9.49;55.93555;935.3258;;;;
2023/04/07 07:54:14;;;;;;;4.7;4.2;;;;;;;9.37;55.93164;935.33;;;;
2023/04/07 07:56:40;;;;;;;5.1;3.9;;;;;;;10.15;56.77441;935.3633;;;;
2023/04/07 07:59:06;;;;;;;6.4;3.9;;;;;;;10.05;55.08398;935.3276;;;;
2023/04/07 08:01:33;;;;;;;5.1;4;;;;;;;9.63;54.56445;935.2947;;;;
2023/04/07 08:03:58;;;;;;;5.2;4.2;;;;;;;10;54.38281;935.218;;;;
2023/04/07 08:06:26;;;;;;;5.2;3.8;;;;;;;10.37;52.26074;935.2402;;;;
2023/04/07 08:08:50;;;;;;;6;3.9;;;;;;;11.43;52.44629;935.1973;;;;
2023/04/07 08:11:16;;;;;;;5.1;4.3;;;;;;;11.07;50.28711;935.166;;;;
2023/04/07 08:13:44;;;;;;;3.9;3.5;;;;;;;12.74;46.47656;935.1129;;;;
2023/04/07 08:16:07;;;;;;;3.6;3;;;;;;;11.43;47.57324;935.14;;;;
2023/04/07 08:18:36;;;;;;;4.4;3.9;;;;;;;12.97;45.59473;935.1448;;;;
2023/04/07 08:21:00;;;;;;;3.8;3.4;;;;;;;14.95;42.15625;935.048;;;;
2023/04/07 08:23:26;;;;;;;3.9;3.1;;;;;;;15.1;39.55273;934.9492;;;;
2023/04/07 08:25:52;;;;;;;3.3;2.9;;;;;;;13.92;40.44629;935.065;;;;
2023/04/07 08:28:21;;;;;;;4.2;3.3;;;;;;;15.77;39.77539;935.0555;;;;
2023/04/07 08:30:45;;;;;;;4.1;3;;;;;;;16.49;37.29395;934.947;;;;
2023/04/07 08:33:12;;;;;;;3.8;3.2;;;;;;;17.03;36.91016;934.9305;;;;
2023/04/07 08:35:37;;;;;;;3.9;3.2;;;;;;;15.2;40.19531;934.9054;;;;
2023/04/07 08:38:04;;;;;;;3.7;2.9;;;;;;;15.34;41.12207;934.9253;;;;
2023/04/07 08:40:28;;;;;;;3;2.7;;;;;;;14.6;41.0166;934.8649;;;;
2023/04/07 08:42:54;;;;;;;3.5;2.9;;;;;;;14.86;41.0293;934.8206;;;;
2023/04/07 08:45:19;;;;;;;3.5;3.1;;;;;;;15.69;40.48438;934.8192;;;;
2023/04/07 08:47:46;;;;;;;3.5;3;;;;;;;15.67;40.8291;934.8122;;;;
2023/04/07 08:50:11;;;;;;;3.2;2.9;;;;;;;18.53;35.94434;934.6651;;;;
2023/04/07 08:52:40;;;;;;;4.3;3.2;;;;;;;19.27;33.68652;934.644;;;;
2023/04/07 08:55:05;;;;;;;3.6;3;;;;;;;16.9;35.5332;934.6456;;;;
2023/04/07 08:57:33;;;;;;;5.1;2.9;;;;;;;17.28;35.70313;934.5762;;;;
2023/04/07 09:00:01;;;;;;;3;2.7;;;;;;;17.05;36.125;934.5286;;;;
2023/04/07 09:02:29;;;;;;;3.7;2.5;;;;;;;16.28;37.50781;934.634;;;;
2023/04/07 09:04:56;;;;;;;6.1;3.6;;;;;;;18.58;36.34375;934.5258;;;;
2023/04/07 09:07:20;;;;;;;6.3;3.9;;;;;;;19.27;35.95801;934.4487;;;;
2023/04/07 09:09:47;;;;;;;3.8;2.7;;;;;;;19.02;35.71582;934.4249;;;;
2023/04/07 09:12:12;;;;;;;2.8;2.5;;;;;;;18.95;34.65137;934.4058;;;;
2023/04/07 09:14:38;;;;;;;3.3;2.9;;;;;;;19.76;33.93359;934.3608;;;;
2023/04/07 09:17:04;;;;;;;3.3;2.7;;;;;;;19.12;33.76855;934.3188;;;;
2023/04/07 09:19:32;;;;;;;3.9;2.8;;;;;;;18.03;34.10156;934.3102;;;;
2023/04/07 09:21:57;;;;;;;2.6;2.4;;;;;;;18.68;34.38672;934.3083;;;;
2023/04/07 09:24:22;;;;;;;4.7;2.7;;;;;;;20.53;33.51367;934.2822;;;;
2023/04/07 09:26:47;;;;;;;2.9;2.6;;;;;;;21.23;28.59473;934.2341;;;;
2023/04/07 09:29:12;;;;;;;3.4;2.7;;;;;;;20.65;30.19238;934.1738;;;;
2023/04/07 09:31:41;;;;;;;2.7;2.2;;;;;;;20;31.12891;934.1817;;;;
2023/04/07 09:34:06;;;;;;;2.2;1.9;;;;;;;19.62;32.2793;934.0994;;;;
2023/04/07 09:36:32;;;;;;;3.2;2.7;;;;;;;21.1;30.15332;934.0469;;;;
2023/04/07 09:38:57;;;;;;;3.3;2.9;;;;;;;21.42;28.17285;933.998;;;;
2023/04/07 09:41:24;;;;;;;3.5;2.8;;;;;;;21.02;30.56836;934.0002;;;;
2023/04/07 09:43:49;;;;;;;3.6;2.9;;;;;;;20.3;30.87012;933.9587;;;;
2023/04/07 09:46:16;;;;;;;4;2.9;;;;;;;20.46;32.76074;933.97;;;;
2023/04/07 09:48:42;;;;;;;4.4;3;;;;;;;21.83;30.60156;933.959;;;;
2023/04/07 09:51:07;;;;;;;3.1;2.8;;;;;;;20.76;28.96094;933.8752;;;;
2023/04/07 09:53:32;;;;;;;3.2;2.6;;;;;;;18.97;33.39648;933.9088;;;;
2023/04/07 09:55:58;;;;;;;3.3;3;;;;;;;19.04;32.52832;933.8546;;;;
2023/04/07 09:58:23;;;;;;;4.4;3.2;;;;;;;18.41;33.80664;933.9681;;;;
2023/04/07 10:00:49;;;;;;;4.4;2.8;;;;;;;18.1;33.43457;933.9069;;;;
2023/04/07 10:03:14;;;;;;;3.8;2.8;;;;;;;18.02;35.32129;933.9919;;;;
2023/04/07 10:05:42;;;;;;;3.1;2;;;;;;;18.52;34.50098;933.8567;;;;
2023/04/07 10:08:06;;;;;;;3;2.1;;;;;;;18.78;32.97363;933.8796;;;;
2023/04/07 10:10:33;;;;;;;2.5;2.2;;;;;;;18.97;32.44141;933.8758;;;;
2023/04/07 10:12:59;;;;;;;2.5;2.3;;;;;;;17.58;35.30957;933.8345;;;;
2023/04/07 10:15:27;;;;;;;2.2;1.9;;;;;;;16.97;35.9209;933.8471;;;;
2023/04/07 10:17:55;;;;;;;1.8;1.7;;;;;;;16.73;37.19824;933.9188;;;;
2023/04/07 10:20:21;;;;;;;5.1;2.3;;;;;;;16.31;36.58496;934.002;;;;
2023/04/07 10:22:49;;;;;;;2.4;1.8;;;;;;;16.06;37.0957;934.0041;;;;
2023/04/07 10:25:13;;;;;;;2.8;1.9;;;;;;;15.53;39.40625;934.0033;;;;
2023/04/07 10:27:40;;;;;;;3.3;1.9;;;;;;;15.31;39.96387;933.9671;;;;
2023/04/07 10:30:04;;;;;;;2.3;2.1;;;;;;;14.92;40.75781;933.9387;;;;
2023/04/07 10:32:29;;;;;;;3.4;2.8;;;;;;;14.56;42.4541;933.9302;;;;
2023/04/07 10:34:54;;;;;;;4.4;2.8;;;;;;;14.43;43.60547;933.8939;;;;
2023/04/07 10:37:21;;;;;;;2.5;2.3;;;;;;;15.21;43.68359;933.9411;;;;
2023/04/07 10:39:46;;;;;;;3.5;2.8;;;;;;;16.12;40.43164;933.9144;;;;
2023/04/07 10:42:13;;;;;;;2.7;2.4;;;;;;;16.31;40.40234;933.8942;;;;
2023/04/07 10:44:38;;;;;;;5.5;2.4;;;;;;;16.35;38.97168;933.7755;;;;
2023/04/07 10:47:06;;;;;;;2.6;2.2;;;;;;;15.71;38.89063;933.9021;;;;
2023/04/07 10:49:31;;;;;;;3.2;2.2;;;;;;;15.73;38.99707;933.8464;;;;
2023/04/07 10:51:57;;;;;;;2.6;2.1;;;;;;;15.62;39.26465;933.8667;;;;
2023/04/07 10:54:22;;;;;;;3.1;2.4;;;;;;;14.88;40.80176;933.8616;;;;
2023/04/07 10:56:49;;;;;;;2.1;1.9;;;;;;;14.75;41.72266;933.8206;;;;
2023/04/07 10:59:22;;;;;;;3.3;2.4;;;;;;;15.44;40.3457;933.853;;;;
2023/04/07 11:01:43;;;;;;;3.4;2.1;;;;;;;15.98;39.77148;933.8517;;;;
2023/04/07 11:04:08;;;;;;;4.4;3.1;;;;;;;16.43;40.42578;933.8189;;;;
2023/04/07 11:06:33;;;;;;;2.8;2.1;;;;;;;17.06;38.07227;933.8028;;;;
2023/04/07 11:08:58;;;;;;;3;2.1;;;;;;;17.67;37.45215;933.8753;;;;
2023/04/07 11:11:25;;;;;;;3.1;2.2;;;;;;;17.87;36.28516;933.8401;;;;
2023/04/07 11:13:50;;;;;;;2.2;2;;;;;;;17.71;37.6875;933.8699;;;;
2023/04/07 11:16:20;;;;;;;3.3;2;;;;;;;17.22;36.47559;933.8998;;;;
2023/04/07 11:18:45;;;;;;;3.4;2;;;;;;;16.43;38.12305;933.8495;;;;
2023/04/07 11:21:10;;;;;;;2.8;2.2;;;;;;;15.85;39.49219;933.8647;;;;
2023/04/07 11:23:36;;;;;;;4.1;2.8;;;;;;;15.69;40.39063;933.8536;;;;
2023/04/07 11:26:02;;;;;;;2.6;2;;;;;;;16.7;39.69727;933.843;;;;
2023/04/07 11:28:27;;;;;;;2.3;2.1;;;;;;;17.7;36.08496;933.7114;;;;
2023/04/07 11:30:53;;;;;;;2.5;2;;;;;;;18.76;34.98535;933.7664;;;;
2023/04/07 11:33:18;;;;;;;2.2;1.7;;;;;;;19.66;32.3291;933.8065;;;;
2023/04/07 11:35:44;;;;;;;2.3;1.8;;;;;;;19.14;32.54688;933.8072;;;;
2023/04/07 11:38:13;;;;;;;3.1;1.6;;;;;;;18.3;33.60059;933.8284;;;;
2023/04/07 11:40:38;;;;;;;2.7;1.8;;;;;;;17.82;34.22559;933.809;;;;
2023/04/07 11:43:03;;;;;;;2.1;1.6;;;;;;;17.25;35.12109;933.8139;;;;
2023/04/07 11:45:29;;;;;;;1.7;1.6;;;;;;;16.63;36.64551;933.8571;;;;
2023/04/07 11:47:54;;;;;;;3.2;1.9;;;;;;;16.3;36.6875;933.8736;;;;
2023/04/07 11:50:19;;;;;;;3.4;1.9;;;;;;;16.04;37.40625;933.8951;;;;
2023/04/07 11:52:48;;;;;;;2.1;1.9;;;;;;;15.57;38.52051;933.8846;;;;
2023/04/07 11:55:13;;;;;;;2.8;1.7;;;;;;;14.93;39.69824;933.9081;;;;
2023/04/07 11:57:40;;;;;;;2.5;1.9;;;;;;;14.68;40.16016;933.9138;;;;
2023/04/07 12:00:05;;;;;;;2.6;1.8;;;;;;;14.72;39.86328;933.9509;;;;
2023/04/07 12:02:33;;;;;;;2.6;1.9;;;;;;;14.71;39.77148;933.8909;;;;
2023/04/07 12:04:58;;;;;;;1.7;1.6;;;;;;;14.85;40.77637;933.9205;;;;
2023/04/07 12:07:26;;;;;;;2.4;2;;;;;;;14.81;40.49512;933.9512;;;;
2023/04/07 12:09:51;;;;;;;2.2;1.8;;;;;;;14.9;39.56836;933.923;;;;
2023/04/07 12:12:17;;;;;;;1.6;1.5;;;;;;;15.08;39.62012;933.9888;;;;
2023/04/07 12:14:43;;;;;;;2.6;1.7;;;;;;;15.01;40.04102;933.9703;;;;
2023/04/07 12:17:11;;;;;;;2.6;1.9;;;;;;;14.99;39.43848;933.9683;;;;
2023/04/07 12:19:38;;;;;;;2;1.8;;;;;;;15.22;39.24023;933.9886;;;;
2023/04/07 12:22:01;;;;;;;2.6;1.9;;;;;;;15.03;39.71875;934.0097;;;;
2023/04/07 12:24:27;;;;;;;1.8;1.7;;;;;;;15.62;39.66895;933.9598;;;;
2023/04/07 12:26:52;;;;;;;4;1.8;;;;;;;15.39;40.21387;934.0302;;;;
2023/04/07 12:29:18;;;;;;;4.2;2;;;;;;;15.27;40.95215;934.085;;;;
2023/04/07 12:31:43;;;;;;;2.1;1.9;;;;;;;15.46;41.14355;934.0381;;;;
2023/04/07 12:34:10;;;;;;;2.6;1.8;;;;;;;15.26;42.1748;934.0178;;;;
2023/04/07 12:36:35;;;;;;;3.1;1.9;;;;;;;15.87;40.43164;934.0449;;;;
2023/04/07 12:39:01;;;;;;;2.2;2;;;;;;;15.93;40.33203;934.0415;;;;
2023/04/07 12:41:26;;;;;;;3.8;2.3;;;;;;;15.33;40.4043;934.0928;;;;
2023/04/07 12:43:52;;;;;;;2.5;2.1;;;;;;;15.37;41.00879;934.1235;;;;
2023/04/07 12:46:17;;;;;;;2.8;2.1;;;;;;;15.43;39.6748;934.1509;;;;
2023/04/07 12:48:43;;;;;;;3;1.9;;;;;;;15.39;40.43359;934.1047;;;;
2023/04/07 12:51:08;;;;;;;2.8;1.8;;;;;;;15.37;40.23535;934.1306;;;;
2023/04/07 12:53:34;;;;;;;2.5;2.3;;;;;;;14.47;44.70313;934.1156;;;;
2023/04/07 12:55:59;;;;;;;5.3;2.7;;;;;;;13.46;44.65723;934.0683;;;;
2023/04/07 12:58:26;;;;;;;3.9;3.1;;;;;;;13.05;46.80859;934.2312;;;;
2023/04/07 13:00:52;;;;;;;3.9;2.6;;;;;;;12.73;47.06055;934.2278;;;;
2023/04/07 13:03:19;;;;;;;5.1;3;;;;;;;12.47;48.70703;934.2559;;;;
2023/04/07 13:05:44;;;;;;;4.1;3.3;;;;;;;12.44;49.59863;934.3088;;;;
2023/04/07 13:08:12;;;;;;;3.2;2.7;;;;;;;12.69;48.81152;934.2583;;;;
2023/04/07 13:10:38;;;;;;;3.6;2.8;;;;;;;12.79;47.15918;934.3153;;;;
2023/04/07 13:13:04;;;;;;;3.9;2.8;;;;;;;12.76;47.70703;934.2986;;;;
2023/04/07 13:15:29;;;;;;;4.3;3;;;;;;;12.78;47.3877;934.3361;;;;
2023/04/07 13:17:54;;;;;;;3.7;2.9;;;;;;;12.72;49.56152;934.3764;;;;
2023/04/07 13:20:19;;;;;;;4.3;2.7;;;;;;;12.84;47.76172;934.4176;;;;
2023/04/07 13:22:47;;;;;;;5;3.2;;;;;;;13.18;47.10938;934.4064;;;;
2023/04/07 13:25:13;;;;;;;3.3;2.8;;;;;;;13.42;45.90625;934.4365;;;;
2023/04/07 13:27:40;;;;;;;3.2;2.9;;;;;;;13.73;46.08691;934.4406;;;;
2023/04/07 13:30:06;;;;;;;3.9;2.9;;;;;;;14;46.96875;934.4111;;;;
2023/04/07 13:32:33;;;;;;;3.6;2.6;;;;;;;14.4;45.46875;934.4283;;;;
2023/04/07 13:34:58;;;;;;;3.2;2.6;;;;;;;14.74;44.45313;934.3233;;;;
2023/04/07 13:37:24;;;;;;;4.2;2.6;;;;;;;14.55;46.3125;934.295;;;;
2023/04/07 13:39:49;;;;;;;2.6;2.4;;;;;;;14.44;46.34766;934.3499;;;;
2023/04/07 13:42:19;;;;;;;2.6;2.4;;;;;;;14.01;45.19727;934.3077;;;;
2023/04/07 13:44:44;;;;;;;3.3;2.9;;;;;;;13.67;46.99023;934.2819;;;;
2023/04/07 13:47:10;;;;;;;3.7;3;;;;;;;12.74;49.19727;934.2189;;;;
2023/04/07 13:49:35;;;;;;;3.6;2.9;;;;;;;12.47;51.26563;934.3158;;;;
2023/04/07 13:52:00;;;;;;;4.3;3.1;;;;;;;12.01;51.52051;934.2782;;;;
2023/04/07 13:54:25;;;;;;;6;4;;;;;;;11.88;52.85547;934.387;;;;
2023/04/07 13:56:51;;;;;;;3.4;3.1;;;;;;;11.76;51.88965;934.2838;;;;
2023/04/07 13:59:16;;;;;;;4.7;3.3;;;;;;;11.57;53.48242;934.3602;;;;
2023/04/07 14:01:47;;;;;;;4.2;3.1;;;;;;;11.46;54.36035;934.4281;;;;
2023/04/07 14:04:13;;;;;;;3.8;2.9;;;;;;;11.51;53.7041;934.4456;;;;
2023/04/07 14:06:38;;;;;;;3.9;2.6;;;;;;;11.53;53.59082;934.4592;;;;
2023/04/07 14:09:05;;;;;;;3.5;3;;;;;;;11.45;53.98145;934.4592;;;;
2023/04/07 14:11:30;;;;;;;4.2;3.4;;;;;;;11.45;54.75977;934.4233;;;;
2023/04/07 14:13:58;;;;;;;3.7;3.3;;;;;;;11.44;54.9541;934.4807;;;;
2023/04/07 14:16:23;;;;;;;4.1;3;;;;;;;11.32;54.75488;934.4908;;;;
2023/04/07 14:18:48;;;;;;;4.1;3.1;;;;;;;11.33;54.50488;934.5817;;;;
2023/04/07 14:21:14;;;;;;;4.4;3.3;;;;;;;11.38;54.30469;934.5051;;;;
2023/04/07 14:23:39;;;;;;;4.4;3;;;;;;;11.53;53.48926;934.503;;;;
2023/04/07 14:26:05;;;;;;;3.4;3.1;;;;;;;11.61;53.28027;934.5168;;;;
2023/04/07 14:28:30;;;;;;;4.1;3.1;;;;;;;11.64;53.10156;934.5726;;;;
2023/04/07 14:30:55;;;;;;;4.3;3.3;;;;;;;11.5;51.74512;934.5037;;;;
2023/04/07 14:33:20;;;;;;;4.7;3;;;;;;;11.52;51.15332;934.5747;;;;
2023/04/07 14:35:45;;;;;;;3.8;2.9;;;;;;;11.6;51.11621;934.5667;;;;
2023/04/07 14:38:14;;;;;;;3.4;2.7;;;;;;;11.56;51.5;934.5843;;;;
2023/04/07 14:40:39;;;;;;;3.2;2.8;;;;;;;11.72;51.48633;934.6188;;;;
2023/04/07 14:43:05;;;;;;;4.9;3.2;;;;;;;11.85;50.83789;934.6616;;;;
2023/04/07 14:45:29;;;;;;;3.1;2.8;;;;;;;11.99;50.46289;934.6852;;;;
2023/04/07 14:47:57;;;;;;;3.5;2.9;;;;;;;11.98;49.26074;934.6764;;;;
2023/04/07 14:50:22;;;;;;;4.1;3;;;;;;;12.04;50.12598;934.663;;;;
2023/04/07 14:52:47;;;;;;;3.6;3.1;;;;;;;11.91;51.83984;934.6965;;;;
2023/04/07 14:55:12;;;;;;;4.3;3.7;;;;;;;11.52;54.31055;934.735;;;;
2023/04/07 14:57:39;;;;;;;5.1;4.6;;;;;;;11.21;56.69824;934.7227;;;;
2023/04/07 15:00:06;;;;;;;3;2.7;;;;;;;10.95;58.7666;934.7662;;;;
2023/04/07 15:02:32;;;;;;;4.3;3.3;;;;;;;10.78;60.98145;934.7592;;;;
2023/04/07 15:04:57;;;;;;;3.8;3.1;;;;;;;10.53;62.77246;934.7875;;;;
2023/04/07 15:07:22;;;;;;;4.8;3.7;;;;;;;10.6;62.77246;934.7734;;;;
2023/04/07 15:09:48;;;;;;;16.7;8.8;;;;;;;10.56;62.34375;934.8027;;;;
2023/04/07 15:12:15;;;;;;;6.4;4.5;;;;;;;10.37;61.73438;934.7491;;;;
2023/04/07 15:14:40;;;;;;;6.6;5.2;;;;;;;10.32;62.00195;934.7497;;;;
2023/04/07 15:17:06;;;;;;;6.2;5.5;;;;;;;10.33;62.27539;934.7697;;;;
2023/04/07 15:19:31;;;;;;;11.2;9.1;;;;;;;10.32;62.87891;934.7592;;;;
2023/04/07 15:21:57;;;;;;;6.9;6;;;;;;;10.36;62.79297;934.687;;;;
2023/04/07 15:24:22;;;;;;;7.5;6.5;;;;;;;10.24;63.96387;934.7637;;;;
2023/04/07 15:26:48;;;;;;;5.1;3.8;;;;;;;10.32;64.10156;934.7712;;;;
2023/04/07 15:29:13;;;;;;;5;3.7;;;;;;;10.44;63.12598;934.7872;;;;
2023/04/07 15:31:42;;;;;;;4.5;2.9;;;;;;;10.21;64.3584;934.8778;;;;
2023/04/07 15:34:07;;;;;;;3.7;2.8;;;;;;;10.23;64.9541;934.848;;;;
2023/04/07 15:36:33;;;;;;;5.4;3.3;;;;;;;10.26;64.9707;934.8219;;;;
2023/04/07 15:38:59;;;;;;;3.2;2.9;;;;;;;10.15;65.70605;934.897;;;;